Terminal Aerodrome Forecast
Issued by NWS Kansas City/Pleasant Hill, MO

Home | Current Version | Previous Version | Text Only | Print | Product List | Glossary On
Versions: 1 2 3 4 5 6 7 8 9 10 11 12 13 14 15 16 17
000
FTUS43 KEAX 291700
TAFMCI
TAF
KMCI 291720Z 2918/3018 22010KT 6SM -SHRA BKN050
      TEMPO 2918/2920 2SM SHRA SCT025 OVC035
     FM292100 23005KT P6SM SCT040 BKN060
      TEMPO 2922/3001 3SM -TSRA BKN035CB
     FM301000 VRB02KT 4SM BR FEW001
     FM301400 29006KT P6SM SCT200=

USA.gov is the U.S. government's official web portal to all federal, state and local government web resources and services.